createdAt,value
2023-07-20T00:00:00.124Z,18.10
2023-07-20T00:02:28.375Z,18.10
2023-07-20T00:04:56.525Z,18.10
2023-07-20T00:07:26.192Z,18.30
2023-07-20T00:09:54.327Z,18.20
2023-07-20T00:12:23.404Z,18.20
2023-07-20T00:14:54.640Z,18.20
2023-07-20T00:17:24.132Z,18.20
2023-07-20T00:19:52.142Z,18.30
2023-07-20T00:22:20.198Z,18.30
2023-07-20T00:24:48.286Z,18.30
2023-07-20T00:27:16.313Z,18.30
2023-07-20T00:29:44.404Z,18.30
2023-07-20T00:32:12.476Z,18.30
2023-07-20T00:34:42.028Z,18.30
2023-07-20T00:37:10.010Z,18.30
2023-07-20T00:39:38.156Z,18.30
2023-07-20T00:42:07.028Z,18.30
2023-07-20T00:44:36.075Z,18.30
2023-07-20T00:47:04.187Z,18.40
2023-07-20T00:49:32.383Z,18.40
2023-07-20T00:52:03.209Z,18.40
2023-07-20T00:54:31.973Z,18.30
2023-07-20T00:57:00.961Z,18.30
2023-07-20T00:59:29.572Z,18.30
2023-07-20T01:01:57.630Z,18.20
2023-07-20T01:04:27.914Z,18.10
2023-07-20T01:07:00.548Z,18.20
2023-07-20T01:09:36.260Z,18.10
2023-07-20T01:12:09.719Z,18.10
2023-07-20T01:14:37.794Z,18.10
2023-07-20T01:17:06.546Z,18.10
2023-07-20T01:19:34.662Z,18.10
2023-07-20T01:22:11.456Z,18.10
2023-07-20T01:25:03.962Z,18.10
2023-07-20T01:27:52.047Z,18.10
2023-07-20T01:30:49.764Z,18.10
2023-07-20T01:33:20.562Z,18.10
2023-07-20T01:35:52.685Z,18.10
2023-07-20T01:38:22.277Z,18.10
2023-07-20T01:40:51.433Z,18.10
2023-07-20T01:43:20.143Z,18.10
2023-07-20T01:45:48.327Z,18.10
2023-07-20T01:48:16.508Z,18.00
2023-07-20T01:50:46.279Z,17.90
2023-07-20T01:53:14.401Z,17.90
2023-07-20T01:55:42.471Z,18.00
2023-07-20T01:58:10.656Z,18.00
2023-07-20T02:00:40.189Z,18.00
2023-07-20T02:03:08.780Z,18.00
2023-07-20T02:05:37.020Z,18.00
2023-07-20T02:08:07.305Z,18.00
2023-07-20T02:10:35.278Z,18.00
2023-07-20T02:13:03.283Z,18.00
2023-07-20T02:15:31.289Z,18.00
2023-07-20T02:17:59.413Z,18.00
2023-07-20T02:20:28.701Z,18.00
2023-07-20T02:22:57.050Z,18.00
2023-07-20T02:25:26.537Z,18.00
2023-07-20T02:27:54.580Z,18.00
2023-07-20T02:30:22.641Z,18.00
2023-07-20T02:32:50.763Z,18.00
2023-07-20T02:35:18.965Z,17.90
2023-07-20T02:37:47.170Z,17.90
2023-07-20T02:40:15.270Z,17.90
2023-07-20T02:42:44.634Z,17.90
2023-07-20T02:45:12.742Z,17.90
2023-07-20T02:47:40.812Z,17.90
2023-07-20T02:50:10.826Z,17.90
2023-07-20T02:52:39.138Z,17.80
2023-07-20T02:55:07.677Z,17.90
2023-07-20T02:57:35.744Z,17.90
2023-07-20T03:00:06.991Z,17.80
2023-07-20T03:02:35.236Z,17.80
2023-07-20T03:05:07.065Z,17.80
2023-07-20T03:07:35.141Z,17.80
2023-07-20T03:10:04.186Z,17.80
2023-07-20T03:12:32.241Z,17.80
2023-07-20T03:15:00.293Z,17.80
2023-07-20T03:17:29.929Z,17.80
2023-07-20T03:19:58.023Z,17.80
2023-07-20T03:22:26.391Z,17.90
2023-07-20T03:24:54.626Z,17.90
2023-07-20T03:27:22.739Z,17.90
2023-07-20T03:29:50.734Z,17.90
2023-07-20T03:32:18.801Z,17.90
2023-07-20T03:34:48.166Z,17.90
2023-07-20T03:37:16.431Z,17.90
2023-07-20T03:39:44.512Z,17.90
2023-07-20T03:42:12.590Z,17.90
2023-07-20T03:44:40.569Z,17.90
2023-07-20T03:47:09.034Z,17.90
2023-07-20T03:49:37.193Z,17.90
2023-07-20T03:52:07.291Z,17.90
2023-07-20T03:54:35.449Z,17.90
2023-07-20T03:57:03.504Z,17.90
2023-07-20T03:59:31.516Z,17.90
2023-07-20T04:01:59.585Z,17.90
2023-07-20T04:04:28.161Z,17.90
2023-07-20T04:06:56.227Z,18.00
2023-07-20T04:09:25.730Z,18.00
2023-07-20T04:11:53.787Z,18.00
2023-07-20T04:14:21.785Z,18.00
2023-07-20T04:16:49.904Z,18.10
2023-07-20T04:19:19.107Z,18.10
2023-07-20T04:21:47.157Z,18.10
2023-07-20T04:24:15.340Z,18.10
2023-07-20T04:26:44.811Z,18.20
2023-07-20T04:29:12.802Z,18.20
2023-07-20T04:31:40.809Z,18.20
2023-07-20T04:34:08.838Z,18.30
2023-07-20T04:36:36.806Z,18.30
2023-07-20T04:39:08.062Z,18.30
2023-07-20T04:41:44.387Z,18.40
2023-07-20T04:44:12.558Z,18.40
2023-07-20T04:46:41.192Z,18.40
2023-07-20T04:49:09.384Z,18.50
2023-07-20T04:51:37.498Z,18.50
2023-07-20T04:54:05.738Z,18.50
2023-07-20T04:56:34.357Z,18.50
2023-07-20T04:59:03.817Z,18.50
2023-07-20T05:01:31.922Z,18.50
2023-07-20T05:03:59.965Z,18.50
2023-07-20T05:06:28.170Z,18.50
2023-07-20T05:08:56.145Z,18.50
2023-07-20T05:11:24.268Z,18.50
2023-07-20T05:13:52.469Z,18.60
2023-07-20T05:16:22.262Z,18.60
2023-07-20T05:18:50.544Z,18.70
2023-07-20T05:21:18.568Z,18.80
2023-07-20T05:23:47.066Z,18.90
2023-07-20T05:26:15.183Z,18.90
2023-07-20T05:28:43.190Z,19.00
2023-07-20T05:31:11.289Z,19.00
2023-07-20T05:33:40.734Z,19.00
2023-07-20T05:36:09.007Z,19.10
2023-07-20T05:38:37.087Z,19.00
2023-07-20T05:41:05.165Z,19.10
2023-07-20T05:43:33.536Z,19.00
2023-07-20T05:46:01.602Z,19.00
2023-07-20T05:48:29.669Z,18.90
2023-07-20T05:50:58.974Z,18.90
2023-07-20T05:53:27.089Z,18.90
2023-07-20T05:55:55.756Z,18.90
2023-07-20T05:58:24.579Z,19.00
2023-07-20T06:00:53.070Z,19.10
2023-07-20T06:03:22.654Z,19.20
2023-07-20T06:05:50.714Z,19.20
2023-07-20T06:08:20.218Z,19.20
2023-07-20T06:10:53.442Z,19.20
2023-07-20T06:13:21.502Z,19.30
2023-07-20T06:15:49.576Z,19.40
2023-07-20T06:18:17.784Z,19.50
2023-07-20T06:20:51.102Z,19.60
2023-07-20T06:23:20.735Z,19.60
2023-07-20T06:25:48.911Z,19.70
2023-07-20T06:28:16.978Z,19.80
2023-07-20T06:30:45.059Z,19.80
2023-07-20T06:33:13.162Z,19.90
2023-07-20T06:35:44.097Z,19.80
2023-07-20T06:40:47.986Z,19.70
2023-07-20T06:45:47.267Z,19.60
2023-07-20T06:48:15.299Z,19.40
2023-07-20T06:50:44.909Z,19.50
2023-07-20T06:53:12.922Z,19.40
2023-07-20T06:55:42.459Z,19.40
2023-07-20T06:58:12.645Z,19.50
2023-07-20T07:00:40.777Z,19.60
2023-07-20T07:03:08.930Z,19.60
2023-07-20T07:05:39.427Z,19.70
2023-07-20T07:08:07.863Z,19.70
2023-07-20T07:10:37.938Z,19.80
2023-07-20T07:13:06.378Z,19.80
2023-07-20T07:15:36.903Z,19.80
2023-07-20T07:18:05.550Z,19.80
2023-07-20T07:20:33.670Z,20.00
2023-07-20T07:23:01.754Z,20.00
2023-07-20T07:25:29.867Z,20.10
2023-07-20T07:27:58.094Z,20.20
2023-07-20T07:30:26.173Z,20.30
2023-07-20T07:32:55.670Z,20.40
2023-07-20T07:35:23.856Z,20.40
2023-07-20T07:38:05.019Z,20.40
2023-07-20T07:40:35.050Z,20.40
2023-07-20T07:43:03.189Z,20.40
2023-07-20T07:45:31.489Z,20.40
2023-07-20T07:48:01.045Z,20.30
2023-07-20T07:50:29.811Z,20.30
2023-07-20T07:52:58.157Z,20.40
2023-07-20T07:55:27.706Z,20.50
2023-07-20T07:57:55.758Z,20.60
2023-07-20T08:00:24.193Z,20.60
2023-07-20T08:02:53.475Z,20.60
2023-07-20T08:05:23.307Z,20.60
2023-07-20T08:07:51.291Z,20.70
2023-07-20T08:10:19.316Z,20.90
2023-07-20T08:12:47.277Z,20.90
2023-07-20T08:15:15.983Z,20.90
2023-07-20T08:17:44.926Z,21.00
2023-07-20T08:20:15.262Z,20.90
2023-07-20T08:22:45.809Z,20.90
2023-07-20T08:25:15.819Z,20.90
2023-07-20T08:27:43.872Z,20.80
2023-07-20T08:30:12.829Z,20.80
2023-07-20T08:32:41.759Z,20.80
2023-07-20T08:35:10.717Z,20.80
2023-07-20T08:37:38.795Z,20.90
2023-07-20T08:40:10.404Z,21.00
2023-07-20T08:42:39.381Z,21.00
2023-07-20T08:45:10.305Z,21.00
2023-07-20T08:47:38.596Z,21.00
2023-07-20T08:50:11.655Z,21.00
2023-07-20T08:52:39.778Z,21.00
2023-07-20T08:55:10.728Z,20.90
2023-07-20T08:57:40.777Z,20.90
2023-07-20T09:00:13.963Z,20.90
2023-07-20T09:02:44.373Z,21.00
2023-07-20T09:05:14.366Z,21.10
2023-07-20T09:07:42.852Z,21.20
2023-07-20T09:10:14.459Z,21.20
2023-07-20T09:12:44.406Z,21.30
2023-07-20T09:15:13.805Z,21.30
2023-07-20T09:17:41.838Z,21.30
2023-07-20T09:20:12.203Z,21.30
2023-07-20T09:22:41.727Z,21.40
2023-07-20T09:25:14.152Z,21.40
2023-07-20T09:27:44.049Z,21.40
2023-07-20T09:30:18.200Z,21.40
2023-07-20T09:38:23.741Z,21.40
2023-07-20T09:50:55.102Z,21.60
2023-07-20T09:53:23.281Z,21.60
2023-07-20T09:55:54.038Z,21.60
2023-07-20T09:58:22.411Z,21.60
2023-07-20T10:00:54.678Z,21.60
2023-07-20T10:03:24.646Z,21.70
2023-07-20T10:06:08.287Z,21.80
2023-07-20T10:11:17.407Z,21.90
2023-07-20T10:13:48.939Z,22.00
2023-07-20T10:18:57.645Z,22.20
2023-07-20T10:23:58.794Z,22.30
2023-07-20T10:26:28.793Z,22.30
2023-07-20T10:28:57.947Z,22.30
2023-07-20T10:31:30.173Z,22.30
2023-07-20T10:33:59.916Z,22.20
2023-07-20T10:36:31.896Z,22.20
2023-07-20T10:39:02.126Z,22.10
2023-07-20T10:41:35.906Z,22.00
2023-07-20T10:44:05.305Z,22.00
2023-07-20T10:46:44.008Z,22.00
2023-07-20T10:49:13.580Z,22.10
2023-07-20T10:51:42.719Z,22.20
2023-07-20T10:54:11.523Z,22.30
2023-07-20T10:56:41.114Z,22.40
2023-07-20T10:59:21.921Z,22.60
2023-07-20T11:01:51.345Z,22.70
2023-07-20T11:04:20.555Z,22.80
2023-07-20T11:06:57.858Z,22.80
2023-07-20T11:09:26.901Z,22.80
2023-07-20T11:12:11.989Z,22.90
2023-07-20T11:14:43.506Z,23.00
2023-07-20T11:17:15.769Z,23.30
2023-07-20T11:22:15.068Z,23.40
2023-07-20T11:24:43.708Z,23.40
2023-07-20T11:27:13.154Z,23.50
2023-07-20T11:29:41.181Z,23.70
2023-07-20T11:32:10.161Z,23.70
2023-07-20T11:34:38.248Z,23.70
2023-07-20T11:39:39.751Z,23.20
2023-07-20T11:42:08.624Z,22.50
2023-07-20T11:44:38.444Z,21.40
2023-07-20T11:47:09.154Z,20.60
2023-07-20T11:49:38.675Z,19.80
2023-07-20T11:52:08.828Z,19.20
2023-07-20T11:54:37.662Z,18.90
2023-07-20T11:57:07.021Z,18.80
2023-07-20T11:59:35.359Z,18.60
2023-07-20T12:02:05.544Z,18.60
2023-07-20T12:04:34.447Z,18.60
2023-07-20T12:07:02.785Z,18.70
2023-07-20T12:09:46.157Z,18.70
2023-07-20T12:12:20.851Z,18.90
2023-07-20T12:14:48.908Z,19.00
2023-07-20T12:17:18.783Z,19.10
2023-07-20T12:19:47.242Z,19.20
2023-07-20T12:22:16.132Z,19.30
2023-07-20T12:24:44.406Z,19.70
2023-07-20T12:27:19.380Z,20.10
2023-07-20T12:29:47.519Z,20.30
2023-07-20T12:32:15.492Z,20.30
2023-07-20T12:34:44.835Z,20.30
2023-07-20T12:37:13.233Z,20.30
2023-07-20T12:39:42.376Z,20.30
2023-07-20T12:42:10.483Z,20.20
2023-07-20T12:44:38.515Z,20.20
2023-07-20T12:47:07.000Z,20.20
2023-07-20T12:49:35.042Z,20.20
2023-07-20T12:52:04.509Z,20.30
2023-07-20T12:54:32.530Z,20.30
2023-07-20T12:59:31.533Z,21.10
2023-07-20T13:01:59.584Z,21.80
2023-07-20T13:04:27.576Z,22.40
2023-07-20T13:06:55.833Z,23.00
2023-07-20T13:09:25.213Z,23.40
2023-07-20T13:11:53.689Z,24.00
2023-07-20T13:14:21.709Z,24.50
2023-07-20T13:16:49.743Z,24.90
2023-07-20T13:19:17.735Z,25.30
2023-07-20T13:21:45.852Z,25.80
2023-07-20T13:24:13.909Z,26.30
2023-07-20T13:26:45.248Z,26.70
2023-07-20T13:29:14.081Z,26.90
2023-07-20T13:31:42.492Z,26.80
2023-07-20T13:34:10.970Z,26.90
2023-07-20T13:36:39.292Z,27.10
2023-07-20T13:39:07.359Z,26.90
2023-07-20T13:41:35.906Z,26.90
2023-07-20T13:44:06.913Z,26.90
2023-07-20T13:49:12.954Z,27.00
2023-07-20T13:51:42.405Z,27.10
2023-07-20T13:56:42.726Z,27.20
2023-07-20T13:59:15.118Z,27.30
2023-07-20T14:01:43.371Z,27.30
2023-07-20T14:04:11.776Z,27.20
2023-07-20T14:06:40.635Z,27.10
2023-07-20T14:09:08.993Z,27.30
2023-07-20T14:14:08.307Z,26.80
2023-07-20T14:16:37.863Z,26.50
2023-07-20T14:19:06.918Z,26.20
2023-07-20T14:21:35.006Z,26.00
2023-07-20T14:24:03.422Z,25.90
2023-07-20T14:26:33.669Z,25.60
2023-07-20T14:29:02.972Z,25.30
2023-07-20T14:31:32.690Z,25.10
2023-07-20T14:34:02.304Z,24.60
2023-07-20T14:36:31.531Z,24.20
2023-07-20T14:39:02.360Z,23.50
2023-07-20T14:41:30.518Z,22.50
2023-07-20T14:43:58.683Z,21.80
2023-07-20T14:48:55.629Z,20.90
2023-07-20T14:51:25.338Z,20.70
2023-07-20T14:53:53.363Z,20.60
2023-07-20T14:56:21.581Z,20.50
2023-07-20T14:58:49.744Z,20.50
2023-07-20T15:01:17.818Z,20.50
2023-07-20T15:03:45.908Z,20.60
2023-07-20T15:06:13.997Z,20.80
2023-07-20T15:08:43.432Z,21.10
2023-07-20T15:11:11.418Z,21.20
2023-07-20T15:13:39.512Z,21.40
2023-07-20T15:16:07.594Z,21.50
2023-07-20T15:18:47.282Z,21.80
2023-07-20T15:21:16.424Z,21.70
2023-07-20T15:23:46.186Z,21.80
2023-07-20T15:26:14.495Z,21.80
2023-07-20T15:28:42.521Z,21.90
2023-07-20T15:31:10.569Z,21.90
2023-07-20T15:33:38.662Z,21.80
2023-07-20T15:36:08.305Z,21.90
2023-07-20T15:38:36.301Z,22.30
2023-07-20T15:41:05.712Z,22.50
2023-07-20T15:43:33.842Z,22.70
2023-07-20T15:46:34.499Z,22.90
2023-07-20T15:49:04.608Z,23.00
2023-07-20T15:51:32.783Z,23.10
2023-07-20T15:54:00.959Z,23.40
2023-07-20T15:56:30.332Z,23.70
2023-07-20T16:01:27.858Z,24.20
2023-07-20T16:03:57.300Z,24.20
2023-07-20T16:06:25.353Z,23.90
2023-07-20T16:08:53.690Z,23.70
2023-07-20T16:11:23.608Z,23.60
2023-07-20T16:13:55.480Z,24.00
2023-07-20T16:16:23.809Z,24.50
2023-07-20T16:18:52.665Z,24.90
2023-07-20T16:21:20.741Z,25.10
2023-07-20T16:23:49.004Z,25.10
2023-07-20T16:26:17.073Z,25.30
2023-07-20T16:28:46.606Z,25.40
2023-07-20T16:31:17.945Z,25.50
2023-07-20T16:33:47.697Z,25.70
2023-07-20T16:36:17.622Z,25.80
2023-07-20T16:38:46.132Z,25.70
2023-07-20T16:41:14.901Z,25.70
2023-07-20T16:51:17.300Z,24.60
2023-07-20T16:53:45.544Z,24.10
2023-07-20T16:56:14.326Z,23.80
2023-07-20T16:58:42.401Z,23.60
2023-07-20T17:01:10.465Z,23.40
2023-07-20T17:03:40.249Z,23.40
2023-07-20T17:08:37.112Z,23.10
2023-07-20T17:11:05.380Z,23.10
2023-07-20T17:13:34.073Z,23.00
2023-07-20T17:16:02.984Z,23.00
2023-07-20T17:18:31.163Z,23.20
2023-07-20T17:21:00.680Z,23.60
2023-07-20T17:31:04.550Z,24.80
2023-07-20T17:33:32.648Z,24.90
2023-07-20T17:41:05.549Z,24.90
2023-07-20T17:43:33.817Z,24.80
2023-07-20T17:48:32.859Z,24.90
2023-07-20T17:51:03.218Z,25.10
2023-07-20T17:53:31.266Z,25.00
2023-07-20T17:55:59.312Z,25.00
2023-07-20T17:58:27.371Z,25.00
2023-07-20T18:00:55.508Z,24.80
2023-07-20T18:03:23.723Z,24.80
2023-07-20T18:05:51.810Z,24.60
2023-07-20T18:08:21.274Z,24.40
2023-07-20T18:10:49.307Z,24.00
2023-07-20T18:13:17.432Z,23.80
2023-07-20T18:15:45.441Z,23.50
2023-07-20T18:18:13.557Z,23.30
2023-07-20T18:20:41.639Z,23.10
2023-07-20T18:23:09.685Z,22.90
2023-07-20T18:25:39.207Z,22.70
2023-07-20T18:28:07.481Z,22.60
2023-07-20T18:30:35.984Z,22.40
2023-07-20T18:33:05.124Z,22.30
2023-07-20T18:35:35.423Z,22.20
2023-07-20T18:38:03.711Z,22.10
2023-07-20T18:40:31.932Z,22.10
2023-07-20T18:43:01.410Z,22.10
2023-07-20T18:45:31.899Z,22.00
2023-07-20T18:48:00.532Z,22.00
2023-07-20T18:50:30.200Z,22.00
2023-07-20T18:53:01.602Z,21.90
2023-07-20T18:55:30.735Z,21.80
2023-07-20T18:57:59.399Z,21.80
2023-07-20T19:00:29.016Z,21.70
2023-07-20T19:02:57.789Z,21.70
2023-07-20T19:05:26.553Z,21.50
2023-07-20T19:07:54.889Z,21.50
2023-07-20T19:10:23.019Z,21.40
2023-07-20T19:12:51.305Z,21.40
2023-07-20T19:15:19.498Z,21.50
2023-07-20T19:17:49.041Z,21.30
2023-07-20T19:20:17.287Z,21.10
2023-07-20T19:22:46.070Z,21.10
2023-07-20T19:25:14.381Z,21.00
2023-07-20T19:27:43.516Z,20.90
2023-07-20T19:30:12.685Z,20.90
2023-07-20T19:32:40.895Z,20.80
2023-07-20T19:35:11.359Z,20.70
2023-07-20T19:37:40.406Z,20.70
2023-07-20T19:40:10.197Z,20.60
2023-07-20T19:42:38.321Z,20.60
2023-07-20T19:45:07.248Z,20.50
2023-07-20T19:47:35.395Z,20.40
2023-07-20T19:50:04.693Z,20.30
2023-07-20T19:52:34.140Z,20.20
2023-07-20T19:55:03.802Z,20.20
2023-07-20T20:05:11.005Z,20.00
2023-07-20T20:07:40.766Z,19.90
2023-07-20T20:10:09.968Z,19.90
2023-07-20T20:12:38.630Z,19.70
2023-07-20T20:15:07.927Z,19.70
2023-07-20T20:17:36.472Z,19.60
2023-07-20T20:20:05.603Z,19.60
2023-07-20T20:22:33.761Z,19.50
2023-07-20T20:25:03.981Z,19.50
2023-07-20T20:27:32.112Z,19.50
2023-07-20T20:30:01.388Z,19.40
2023-07-20T20:32:29.548Z,19.20
2023-07-20T20:34:58.671Z,19.30
2023-07-20T20:37:26.839Z,19.30
2023-07-20T20:39:54.843Z,19.20
2023-07-20T20:42:24.401Z,19.20
2023-07-20T20:44:52.492Z,19.10
2023-07-20T20:47:20.503Z,19.00
2023-07-20T20:49:49.492Z,19.00
2023-07-20T20:52:18.915Z,19.00
2023-07-20T20:54:48.067Z,18.90
2023-07-20T20:57:17.667Z,19.00
2023-07-20T20:59:48.823Z,18.90
2023-07-20T21:02:19.033Z,18.90
2023-07-20T21:04:49.115Z,18.80
2023-07-20T21:07:17.407Z,18.80
2023-07-20T21:09:46.367Z,18.80
2023-07-20T21:12:14.391Z,18.70
2023-07-20T21:14:42.791Z,18.80
2023-07-20T21:17:12.811Z,18.70
2023-07-20T21:19:40.911Z,18.70
2023-07-20T21:22:09.054Z,18.70
2023-07-20T21:24:37.461Z,18.70
2023-07-20T21:27:05.761Z,18.60
2023-07-20T21:29:34.812Z,18.60
2023-07-20T21:32:03.126Z,18.60
2023-07-20T21:34:32.977Z,18.50
2023-07-20T21:37:01.116Z,18.50
2023-07-20T21:39:29.217Z,18.40
2023-07-20T21:44:26.210Z,18.30
2023-07-20T21:46:54.550Z,18.30
2023-07-20T21:49:22.958Z,18.20
2023-07-20T21:51:52.386Z,18.20
2023-07-20T21:54:20.390Z,18.10
2023-07-20T21:56:48.595Z,18.10
2023-07-20T21:59:16.772Z,18.00
2023-07-20T22:04:17.017Z,17.90
2023-07-20T22:06:47.123Z,17.90
2023-07-20T22:09:16.872Z,17.80
2023-07-20T22:11:44.923Z,17.80
2023-07-20T22:14:12.928Z,17.80
2023-07-20T22:16:42.055Z,17.80
2023-07-20T22:19:10.858Z,17.80
2023-07-20T22:21:40.115Z,17.70
2023-07-20T22:24:08.554Z,17.70
2023-07-20T22:26:38.105Z,17.80
2023-07-20T22:29:07.996Z,17.80
2023-07-20T22:31:36.240Z,17.70
2023-07-20T22:34:04.311Z,17.90
2023-07-20T22:36:32.941Z,17.70
2023-07-20T22:39:00.983Z,17.70
2023-07-20T22:41:29.258Z,17.60
2023-07-20T22:43:58.745Z,17.60
2023-07-20T22:46:26.988Z,17.50
2023-07-20T22:48:56.350Z,17.40
2023-07-20T22:51:24.442Z,17.50
2023-07-20T22:53:53.420Z,17.40
2023-07-20T22:56:21.478Z,17.40
2023-07-20T22:58:49.493Z,17.30
2023-07-20T23:01:18.856Z,17.30
2023-07-20T23:03:47.546Z,17.30
2023-07-20T23:06:15.964Z,17.20
2023-07-20T23:08:44.428Z,17.20
2023-07-20T23:11:13.212Z,17.30
2023-07-20T23:13:41.433Z,17.30
2023-07-20T23:16:09.565Z,17.10
2023-07-20T23:18:39.028Z,16.90
2023-07-20T23:21:08.478Z,16.90
2023-07-20T23:23:38.319Z,16.90
2023-07-20T23:26:07.394Z,16.90
2023-07-20T23:28:35.603Z,17.10
2023-07-20T23:31:03.735Z,16.80
2023-07-20T23:33:32.033Z,16.80
2023-07-20T23:36:09.158Z,16.70
2023-07-20T23:38:37.991Z,16.90
2023-07-20T23:41:07.853Z,16.60
2023-07-20T23:43:36.445Z,16.60
2023-07-20T23:46:05.492Z,16.60
2023-07-20T23:48:41.413Z,16.60
2023-07-20T23:51:14.747Z,16.50
2023-07-20T23:53:43.228Z,16.50
2023-07-20T23:56:11.226Z,16.40
2023-07-20T23:58:39.578Z,16.40
